createdAt,value
2019-04-16T00:00:52.489Z,11.23
2019-04-16T00:03:20.383Z,11.13
2019-04-16T00:05:59.816Z,11.14
2019-04-16T00:08:42.929Z,11.21
2019-04-16T00:11:21.276Z,11.21
2019-04-16T00:13:52.110Z,11.18
2019-04-16T00:16:19.210Z,11.24
2019-04-16T00:18:56.596Z,11.18
2019-04-16T00:21:49.255Z,11.01
2019-04-16T00:24:29.481Z,10.76
2019-04-16T00:26:59.112Z,10.42
2019-04-16T00:29:24.806Z,10.27
2019-04-16T00:31:54.891Z,10.23
2019-04-16T00:34:21.581Z,10.35
2019-04-16T00:36:49.287Z,10.37
2019-04-16T00:39:16.475Z,10.19
2019-04-16T00:41:43.213Z,9.97
2019-04-16T00:44:10.282Z,9.92
2019-04-16T00:46:37.971Z,9.79
2019-04-16T00:49:04.707Z,9.74
2019-04-16T00:51:31.410Z,9.68
2019-04-16T00:53:58.143Z,9.87
2019-04-16T00:56:27.830Z,10.00
2019-04-16T00:58:54.535Z,9.99
2019-04-16T01:01:21.273Z,10.00
2019-04-16T01:03:47.965Z,10.12
2019-04-16T01:06:14.666Z,10.07
2019-04-16T01:08:53.941Z,9.96
2019-04-16T01:11:09.993Z,9.74
2019-04-16T01:14:08.169Z,9.73
2019-04-16T01:16:34.913Z,9.73
2019-04-16T01:19:01.615Z,9.79
2019-04-16T01:21:28.346Z,9.76
2019-04-16T01:23:55.049Z,9.58
2019-04-16T01:26:24.223Z,9.68
2019-04-16T01:29:08.791Z,9.79
2019-04-16T01:31:55.159Z,9.74
2019-04-16T01:34:39.731Z,9.71
2019-04-16T01:37:27.284Z,9.88
2019-04-16T01:39:55.352Z,9.96
2019-04-16T01:42:23.550Z,9.86
2019-04-16T01:44:50.663Z,9.90
2019-04-16T01:47:17.704Z,9.98
2019-04-16T01:49:44.377Z,9.80
2019-04-16T01:52:11.090Z,9.73
2019-04-16T01:54:37.785Z,9.61
2019-04-16T01:57:04.800Z,9.65
2019-04-16T01:59:35.651Z,9.71
2019-04-16T02:02:00.135Z,9.69
2019-04-16T02:04:27.244Z,9.55
2019-04-16T02:06:54.346Z,9.46
2019-04-16T02:09:23.214Z,9.64
2019-04-16T02:11:50.287Z,9.56
2019-04-16T02:14:19.346Z,9.56
2019-04-16T02:16:45.742Z,9.66
2019-04-16T02:19:12.797Z,9.70
2019-04-16T02:21:41.444Z,9.68
2019-04-16T02:24:08.819Z,9.62
2019-04-16T02:26:37.446Z,9.45
2019-04-16T02:29:08.303Z,9.15
2019-04-16T02:31:35.406Z,8.91
2019-04-16T02:34:02.650Z,8.81
2019-04-16T02:36:29.400Z,8.64
2019-04-16T02:38:56.126Z,8.69
2019-04-16T02:41:24.480Z,8.47
2019-04-16T02:43:51.485Z,8.25
2019-04-16T02:46:18.239Z,8.19
2019-04-16T02:48:49.932Z,8.25
2019-04-16T02:51:21.221Z,8.24
2019-04-16T02:54:10.401Z,8.30
2019-04-16T02:57:02.593Z,8.13
2019-04-16T02:59:46.014Z,7.91
2019-04-16T03:02:23.875Z,7.77
2019-04-16T03:04:58.444Z,7.82
2019-04-16T03:07:25.094Z,7.86
2019-04-16T03:10:01.213Z,8.02
2019-04-16T03:12:21.610Z,8.02
2019-04-16T03:14:48.518Z,8.11
2019-04-16T03:17:32.659Z,8.18
2019-04-16T03:20:01.169Z,8.22
2019-04-16T03:22:30.609Z,8.27
2019-04-16T03:24:56.581Z,8.27
2019-04-16T03:27:25.218Z,8.11
2019-04-16T03:29:54.226Z,8.01
2019-04-16T03:32:20.962Z,7.92
2019-04-16T03:34:50.591Z,7.90
2019-04-16T03:37:16.259Z,7.92
2019-04-16T03:39:44.683Z,7.89
2019-04-16T03:42:11.622Z,7.86
2019-04-16T03:44:38.351Z,7.72
2019-04-16T03:47:05.081Z,7.72
2019-04-16T03:49:31.799Z,7.57
2019-04-16T03:51:58.885Z,7.68
2019-04-16T03:54:25.968Z,7.72
2019-04-16T03:56:52.647Z,7.62
2019-04-16T03:59:19.501Z,7.55
2019-04-16T04:01:46.882Z,7.57
2019-04-16T04:04:13.802Z,7.55
2019-04-16T04:06:40.715Z,7.64
2019-04-16T04:09:07.449Z,7.72
2019-04-16T04:11:34.757Z,7.68
2019-04-16T04:14:01.825Z,7.61
2019-04-16T04:16:30.589Z,7.61
2019-04-16T04:18:57.219Z,7.61
2019-04-16T04:21:26.669Z,7.61
2019-04-16T04:23:53.409Z,7.58
2019-04-16T04:26:20.150Z,7.57
2019-04-16T04:28:48.584Z,7.58
2019-04-16T04:31:15.535Z,7.60
2019-04-16T04:33:43.150Z,7.53
2019-04-16T04:36:10.235Z,7.44
2019-04-16T04:38:38.364Z,7.33
2019-04-16T04:41:05.301Z,7.27
2019-04-16T04:43:32.704Z,7.30
2019-04-16T04:45:59.989Z,7.43
2019-04-16T04:48:26.789Z,7.53
2019-04-16T04:50:53.780Z,7.44
2019-04-16T04:53:21.745Z,7.46
2019-04-16T04:55:48.443Z,7.49
2019-04-16T04:58:18.226Z,7.50
2019-04-16T05:00:44.938Z,7.57
2019-04-16T05:03:15.516Z,7.57
2019-04-16T05:05:48.159Z,7.56
2019-04-16T05:08:21.073Z,7.61
2019-04-16T05:10:58.371Z,7.59
2019-04-16T05:13:16.418Z,7.57
2019-04-16T05:15:43.326Z,7.50
2019-04-16T05:18:10.946Z,7.44
2019-04-16T05:20:38.129Z,7.44
2019-04-16T05:23:06.332Z,7.46
2019-04-16T05:25:36.168Z,7.48
2019-04-16T05:28:02.878Z,7.60
2019-04-16T05:30:30.098Z,7.65
2019-04-16T05:32:56.803Z,7.76
2019-04-16T05:35:23.527Z,7.72
2019-04-16T05:37:51.526Z,7.65
2019-04-16T05:40:18.967Z,7.79
2019-04-16T05:42:45.692Z,7.78
2019-04-16T05:45:12.476Z,7.82
2019-04-16T05:47:48.777Z,7.90
2019-04-16T05:50:13.117Z,7.95
2019-04-16T05:52:39.832Z,8.03
2019-04-16T05:55:28.814Z,8.11
2019-04-16T05:57:58.281Z,8.00
2019-04-16T06:00:33.085Z,7.84
2019-04-16T06:02:59.834Z,7.95
2019-04-16T06:05:28.122Z,8.05
2019-04-16T06:08:09.068Z,8.09
2019-04-16T06:10:36.046Z,8.10
2019-04-16T06:13:16.826Z,8.08
2019-04-16T06:16:05.654Z,8.13
2019-04-16T06:18:52.058Z,8.19
2019-04-16T06:21:47.227Z,8.21
2019-04-16T06:24:21.885Z,8.15
2019-04-16T06:27:10.974Z,8.35
2019-04-16T06:30:06.466Z,8.48
2019-04-16T06:32:39.646Z,8.79
2019-04-16T06:35:24.802Z,9.00
2019-04-16T06:38:10.033Z,8.96
2019-04-16T06:40:39.145Z,8.92
2019-04-16T06:43:14.635Z,8.92
2019-04-16T06:45:47.035Z,9.05
2019-04-16T06:48:25.122Z,9.18
2019-04-16T06:51:17.570Z,9.39
2019-04-16T06:54:05.568Z,9.66
2019-04-16T06:56:56.213Z,9.88
2019-04-16T06:59:39.576Z,9.97
2019-04-16T07:02:31.772Z,10.06
2019-04-16T07:05:15.812Z,10.23
2019-04-16T07:08:02.464Z,10.47
2019-04-16T07:10:44.098Z,10.60
2019-04-16T07:13:01.085Z,10.86
2019-04-16T07:15:28.804Z,11.01
2019-04-16T07:17:56.070Z,11.12
2019-04-16T07:20:22.835Z,11.24
2019-04-16T07:22:52.708Z,11.41
2019-04-16T07:25:18.819Z,11.51
2019-04-16T07:27:57.814Z,11.61
2019-04-16T07:30:32.630Z,11.74
2019-04-16T07:33:20.997Z,11.84
2019-04-16T07:35:57.585Z,12.00
2019-04-16T07:38:39.006Z,12.16
2019-04-16T07:41:34.400Z,12.30
2019-04-16T07:44:26.430Z,12.48
2019-04-16T07:47:30.914Z,12.62
2019-04-16T07:50:01.648Z,12.75
2019-04-16T07:52:39.014Z,12.81
2019-04-16T07:55:27.388Z,12.91
2019-04-16T07:57:56.872Z,13.01
2019-04-16T08:00:27.434Z,13.17
2019-04-16T08:02:54.699Z,13.35
2019-04-16T08:05:21.658Z,13.50
2019-04-16T08:07:49.798Z,13.65
2019-04-16T08:10:17.136Z,13.76
2019-04-16T08:12:50.484Z,13.91
2019-04-16T08:15:19.473Z,14.10
2019-04-16T08:17:46.200Z,14.34
2019-04-16T08:20:12.964Z,14.49
2019-04-16T08:22:47.315Z,14.55
2019-04-16T08:25:10.902Z,14.59
2019-04-16T08:27:37.792Z,14.55
2019-04-16T08:30:05.263Z,14.60
2019-04-16T08:32:34.520Z,14.75
2019-04-16T08:35:04.230Z,14.81
2019-04-16T08:37:31.009Z,14.94
2019-04-16T08:39:57.845Z,15.05
2019-04-16T08:42:27.643Z,15.12
2019-04-16T08:44:53.641Z,15.22
2019-04-16T08:47:20.381Z,15.37
2019-04-16T08:49:53.801Z,15.47
2019-04-16T08:52:17.242Z,15.46
2019-04-16T08:54:44.086Z,15.57
2019-04-16T08:57:10.921Z,15.49
2019-04-16T08:59:39.554Z,15.49
2019-04-16T09:02:07.081Z,15.58
2019-04-16T09:04:37.572Z,15.63
2019-04-16T09:07:11.976Z,15.60
2019-04-16T09:09:48.227Z,15.83
2019-04-16T09:12:16.407Z,16.08
2019-04-16T09:14:45.988Z,16.22
2019-04-16T09:17:19.026Z,16.36
2019-04-16T09:19:52.701Z,16.43
2019-04-16T09:22:19.456Z,16.55
2019-04-16T09:25:13.944Z,16.60
2019-04-16T09:27:42.932Z,16.72
2019-04-16T09:30:28.078Z,16.92
2019-04-16T09:33:10.675Z,16.92
2019-04-16T09:35:50.565Z,16.81
2019-04-16T09:38:35.527Z,16.82
2019-04-16T09:41:12.883Z,16.84
2019-04-16T09:43:45.456Z,16.87
2019-04-16T09:46:21.117Z,16.95
2019-04-16T09:48:40.880Z,16.96
2019-04-16T09:51:07.596Z,17.02
2019-04-16T09:53:37.558Z,17.17
2019-04-16T09:56:23.019Z,17.35
2019-04-16T09:58:51.032Z,17.33
2019-04-16T10:01:17.932Z,17.29
2019-04-16T10:03:45.900Z,17.28
2019-04-16T10:06:13.571Z,17.50
2019-04-16T10:08:44.520Z,17.68
2019-04-16T10:11:14.613Z,17.71
2019-04-16T10:13:41.356Z,17.86
2019-04-16T10:16:08.197Z,17.80
2019-04-16T10:18:36.058Z,17.74
2019-04-16T10:21:06.141Z,17.84
2019-04-16T10:23:42.462Z,17.98
2019-04-16T10:26:09.333Z,17.86
2019-04-16T10:28:37.848Z,17.88
2019-04-16T10:31:04.707Z,17.78
2019-04-16T10:33:31.485Z,17.73
2019-04-16T10:36:01.053Z,17.74
2019-04-16T10:38:39.622Z,17.76
2019-04-16T10:41:12.597Z,17.71
2019-04-16T10:43:58.505Z,17.84
2019-04-16T10:46:44.468Z,17.90
2019-04-16T10:49:20.128Z,17.89
2019-04-16T10:52:06.506Z,17.79
2019-04-16T10:54:44.969Z,17.79
2019-04-16T10:57:29.915Z,17.83
2019-04-16T11:00:13.335Z,17.81
2019-04-16T11:02:43.586Z,17.75
2019-04-16T11:05:20.710Z,17.85
2019-04-16T11:07:48.180Z,17.79
2019-04-16T11:10:15.176Z,17.73
2019-04-16T11:12:42.089Z,17.74
2019-04-16T11:15:10.650Z,17.82
2019-04-16T11:17:40.037Z,17.79
2019-04-16T11:20:06.902Z,17.77
2019-04-16T11:22:35.195Z,17.78
2019-04-16T11:25:02.473Z,17.93
2019-04-16T11:27:29.782Z,17.92
2019-04-16T11:29:56.530Z,18.06
2019-04-16T11:32:26.561Z,18.00
2019-04-16T11:34:53.296Z,18.24
2019-04-16T11:37:32.283Z,18.19
2019-04-16T11:39:57.597Z,18.17
2019-04-16T11:42:24.381Z,18.26
2019-04-16T11:44:51.169Z,18.12
2019-04-16T11:47:18.325Z,18.20
2019-04-16T11:49:45.034Z,18.35
2019-04-16T11:52:11.896Z,18.44
2019-04-16T11:54:38.716Z,18.40
2019-04-16T11:57:05.462Z,18.42
2019-04-16T11:59:32.177Z,18.63
2019-04-16T12:02:04.676Z,18.83
2019-04-16T12:04:44.948Z,18.92
2019-04-16T12:07:31.426Z,18.95
2019-04-16T12:10:16.511Z,18.76
2019-04-16T12:13:08.963Z,18.65
2019-04-16T12:15:44.867Z,18.53
2019-04-16T12:18:19.333Z,18.28
2019-04-16T12:20:49.323Z,18.35
2019-04-16T12:23:38.466Z,18.39
2019-04-16T12:26:28.236Z,18.28
2019-04-16T12:29:13.985Z,18.30
2019-04-16T12:32:04.310Z,18.27
2019-04-16T12:34:52.206Z,18.34
2019-04-16T12:37:42.356Z,18.18
2019-04-16T12:40:11.904Z,18.11
2019-04-16T12:42:58.381Z,18.11
2019-04-16T12:45:37.267Z,18.02
2019-04-16T12:48:25.774Z,17.95
2019-04-16T12:51:06.969Z,18.05
2019-04-16T12:53:44.675Z,18.13
2019-04-16T12:56:24.724Z,18.04
2019-04-16T12:59:13.243Z,17.95
2019-04-16T13:02:12.125Z,17.95
2019-04-16T13:04:45.730Z,17.94
2019-04-16T13:07:18.386Z,17.98
2019-04-16T13:10:00.405Z,18.03
2019-04-16T13:12:55.562Z,18.11
2019-04-16T13:15:41.909Z,18.11
2019-04-16T13:18:31.173Z,17.99
2019-04-16T13:21:06.840Z,18.01
2019-04-16T13:23:59.359Z,17.92
2019-04-16T13:26:29.246Z,17.90
2019-04-16T13:28:56.624Z,17.79
2019-04-16T13:31:23.344Z,17.79
2019-04-16T13:33:50.971Z,17.92
2019-04-16T13:36:20.485Z,18.00
2019-04-16T13:39:01.754Z,18.09
2019-04-16T13:41:28.674Z,18.17
2019-04-16T13:44:07.907Z,18.09
2019-04-16T13:46:34.613Z,18.09
2019-04-16T13:49:13.687Z,18.11
2019-04-16T13:51:41.796Z,18.08
2019-04-16T13:54:21.397Z,18.15
2019-04-16T13:56:57.539Z,18.13
2019-04-16T13:59:46.751Z,18.20
2019-04-16T14:02:35.704Z,18.12
2019-04-16T14:05:04.717Z,18.21
2019-04-16T14:07:31.622Z,18.13
2019-04-16T14:09:58.406Z,18.13
2019-04-16T14:12:41.162Z,18.01
2019-04-16T14:14:55.890Z,17.77
2019-04-16T14:17:24.773Z,17.62
2019-04-16T14:19:51.727Z,17.59
2019-04-16T14:22:21.895Z,17.53
2019-04-16T14:24:49.399Z,17.45
2019-04-16T14:27:17.030Z,17.52
2019-04-16T14:29:43.745Z,17.57
2019-04-16T14:32:10.512Z,17.55
2019-04-16T14:34:52.776Z,17.48
2019-04-16T14:37:21.370Z,17.49
2019-04-16T14:39:54.760Z,17.44
2019-04-16T14:42:23.163Z,17.37
2019-04-16T14:44:57.019Z,17.23
2019-04-16T14:47:29.901Z,17.21
2019-04-16T14:49:56.952Z,17.32
2019-04-16T14:52:24.029Z,17.29
2019-04-16T14:55:08.871Z,17.31
2019-04-16T14:57:55.388Z,17.34
2019-04-16T15:00:50.664Z,17.33
2019-04-16T15:03:43.089Z,17.15
2019-04-16T15:06:28.882Z,17.15
2019-04-16T15:09:24.136Z,17.17
2019-04-16T15:12:09.270Z,17.19
2019-04-16T15:14:40.886Z,17.23
2019-04-16T15:17:29.348Z,17.13
2019-04-16T15:20:05.973Z,16.91
2019-04-16T15:22:52.961Z,16.90
2019-04-16T15:25:26.602Z,16.87
2019-04-16T15:28:11.863Z,16.80
2019-04-16T15:30:53.784Z,16.65
2019-04-16T15:33:30.791Z,16.56
2019-04-16T15:36:07.596Z,16.59
2019-04-16T15:38:48.102Z,16.61
2019-04-16T15:41:18.691Z,16.75
2019-04-16T15:44:23.562Z,16.79
2019-04-16T15:47:15.310Z,16.71
2019-04-16T15:49:49.391Z,16.45
2019-04-16T15:52:46.664Z,16.50
2019-04-16T15:55:39.391Z,16.43
2019-04-16T15:58:32.060Z,16.48
2019-04-16T16:01:21.400Z,16.55
2019-04-16T16:04:06.352Z,16.54
2019-04-16T16:06:33.732Z,16.54
2019-04-16T16:09:11.235Z,16.45
2019-04-16T16:12:10.618Z,16.44
2019-04-16T16:14:38.852Z,16.40
2019-04-16T16:17:06.173Z,16.38
2019-04-16T16:19:33.121Z,16.24
2019-04-16T16:22:00.402Z,16.31
2019-04-16T16:24:27.293Z,16.35
2019-04-16T16:26:54.223Z,16.44
2019-04-16T16:29:21.076Z,16.45
2019-04-16T16:31:47.925Z,16.40
2019-04-16T16:34:14.789Z,16.35
2019-04-16T16:36:42.045Z,16.38
2019-04-16T16:39:09.467Z,16.42
2019-04-16T16:41:36.255Z,16.33
2019-04-16T16:44:03.184Z,16.21
2019-04-16T16:46:55.984Z,16.19
2019-04-16T16:49:11.231Z,16.33
2019-04-16T16:51:40.172Z,16.32
2019-04-16T16:54:13.451Z,16.18
2019-04-16T16:56:46.914Z,16.23
2019-04-16T16:59:26.511Z,16.22
2019-04-16T17:02:12.866Z,16.12
2019-04-16T17:04:44.365Z,16.12
2019-04-16T17:07:11.096Z,16.07
2019-04-16T17:09:37.794Z,16.10
2019-04-16T17:12:04.832Z,16.02
2019-04-16T17:14:36.484Z,15.85
2019-04-16T17:17:12.870Z,15.76
2019-04-16T17:19:28.984Z,15.74
2019-04-16T17:21:55.785Z,15.73
2019-04-16T17:24:24.956Z,15.85
2019-04-16T17:26:52.287Z,15.73
2019-04-16T17:29:19.039Z,15.64
2019-04-16T17:31:46.062Z,15.56
2019-04-16T17:34:13.525Z,15.50
2019-04-16T17:36:40.287Z,15.47
2019-04-16T17:39:10.504Z,15.49
2019-04-16T17:41:40.862Z,15.43
2019-04-16T17:44:30.083Z,15.47
2019-04-16T17:47:30.774Z,15.41
2019-04-16T17:49:49.922Z,15.24
2019-04-16T17:52:24.225Z,15.17
2019-04-16T17:55:05.495Z,15.17
2019-04-16T17:57:51.970Z,15.08
2019-04-16T18:00:40.870Z,15.01
2019-04-16T18:03:30.500Z,14.97
2019-04-16T18:06:15.734Z,14.87
2019-04-16T18:09:07.452Z,14.88
2019-04-16T18:12:03.178Z,14.91
2019-04-16T18:14:38.811Z,14.96
2019-04-16T18:17:26.965Z,14.88
2019-04-16T18:20:30.694Z,14.90
2019-04-16T18:23:19.631Z,14.75
2019-04-16T18:26:04.314Z,14.70
2019-04-16T18:28:36.789Z,14.71
2019-04-16T18:31:12.850Z,14.67
2019-04-16T18:33:47.353Z,14.57
2019-04-16T18:36:36.006Z,14.62
2019-04-16T18:39:22.768Z,14.57
2019-04-16T18:41:59.704Z,14.46
2019-04-16T18:45:04.618Z,14.38
2019-04-16T18:47:34.562Z,14.27
2019-04-16T18:50:05.428Z,14.28
2019-04-16T18:52:32.262Z,14.25
2019-04-16T18:54:58.961Z,14.22
2019-04-16T18:57:25.810Z,14.24
2019-04-16T18:59:52.574Z,14.13
2019-04-16T19:02:19.698Z,14.12
2019-04-16T19:04:46.463Z,14.16
2019-04-16T19:07:13.201Z,14.10
2019-04-16T19:09:42.381Z,14.08
2019-04-16T19:12:19.642Z,14.12
2019-04-16T19:14:46.415Z,14.10
2019-04-16T19:17:16.478Z,14.08
2019-04-16T19:19:45.531Z,14.07
2019-04-16T19:22:12.558Z,14.03
2019-04-16T19:24:39.370Z,13.98
2019-04-16T19:27:06.651Z,13.92
2019-04-16T19:29:33.370Z,13.89
2019-04-16T19:32:00.241Z,13.92
2019-04-16T19:34:29.690Z,13.94
2019-04-16T19:37:00.192Z,13.93
2019-04-16T19:39:25.243Z,13.94
2019-04-16T19:41:56.477Z,13.94
2019-04-16T19:44:21.427Z,13.94
2019-04-16T19:46:52.516Z,13.96
2019-04-16T19:49:18.976Z,13.94
2019-04-16T19:51:46.162Z,13.98
2019-04-16T19:54:12.884Z,13.99
2019-04-16T19:56:39.617Z,14.00
2019-04-16T19:59:06.347Z,13.93
2019-04-16T20:01:37.930Z,13.94
2019-04-16T20:04:10.773Z,13.90
2019-04-16T20:06:36.262Z,13.90
2019-04-16T20:09:05.867Z,13.91
2019-04-16T20:11:32.664Z,13.87
2019-04-16T20:14:02.649Z,13.88
2019-04-16T20:16:28.344Z,13.82
2019-04-16T20:18:59.484Z,13.83
2019-04-16T20:21:30.959Z,13.83
2019-04-16T20:24:00.442Z,13.89
2019-04-16T20:26:29.337Z,13.89
2019-04-16T20:29:03.581Z,13.95
2019-04-16T20:31:31.022Z,13.88
2019-04-16T20:33:57.743Z,13.83
2019-04-16T20:36:24.514Z,13.92
2019-04-16T20:38:51.205Z,13.90
2019-04-16T20:41:19.273Z,13.96
2019-04-16T20:43:46.055Z,13.85
2019-04-16T20:46:12.804Z,13.79
2019-04-16T20:48:41.919Z,13.73
2019-04-16T20:51:08.615Z,13.71
2019-04-16T20:53:38.035Z,13.78
2019-04-16T20:56:09.902Z,13.71
2019-04-16T20:58:34.458Z,13.72
2019-04-16T21:01:01.917Z,13.67
2019-04-16T21:03:31.120Z,13.62
2019-04-16T21:05:59.645Z,13.60
2019-04-16T21:08:26.564Z,13.54
2019-04-16T21:10:53.616Z,13.56
2019-04-16T21:13:21.454Z,13.54
2019-04-16T21:15:48.663Z,13.52
2019-04-16T21:18:15.384Z,13.60
2019-04-16T21:20:42.205Z,13.56
2019-04-16T21:23:09.222Z,13.51
2019-04-16T21:25:36.191Z,13.51
2019-04-16T21:28:12.439Z,13.50
2019-04-16T21:30:42.916Z,13.48
2019-04-16T21:33:25.312Z,13.51
2019-04-16T21:35:55.301Z,13.50
2019-04-16T21:38:45.194Z,13.50
2019-04-16T21:41:12.879Z,13.44
2019-04-16T21:43:40.398Z,13.37
2019-04-16T21:46:07.715Z,13.34
2019-04-16T21:48:34.375Z,13.33
2019-04-16T21:51:04.208Z,13.35
2019-04-16T21:53:30.907Z,13.35
2019-04-16T21:55:57.602Z,13.34
2019-04-16T21:58:24.879Z,13.28
2019-04-16T22:01:29.565Z,13.24
2019-04-16T22:03:59.319Z,13.20
2019-04-16T22:06:26.414Z,13.17
2019-04-16T22:08:53.151Z,13.14
2019-04-16T22:11:19.899Z,13.20
2019-04-16T22:13:50.467Z,13.15
2019-04-16T22:16:15.299Z,13.08
2019-04-16T22:18:42.325Z,13.12
2019-04-16T22:21:10.665Z,13.22
2019-04-16T22:23:37.833Z,13.26
2019-04-16T22:26:04.645Z,13.11
2019-04-16T22:28:31.335Z,13.07
2019-04-16T22:30:58.115Z,13.10
2019-04-16T22:33:24.749Z,13.08
2019-04-16T22:35:51.476Z,13.20
2019-04-16T22:38:18.193Z,13.24
2019-04-16T22:40:55.632Z,13.25
2019-04-16T22:43:54.025Z,13.17
2019-04-16T22:46:40.421Z,13.17
2019-04-16T22:49:07.161Z,13.14
2019-04-16T22:51:36.623Z,13.20
2019-04-16T22:54:03.344Z,13.25
2019-04-16T22:56:43.799Z,13.26
2019-04-16T22:59:10.506Z,13.16
2019-04-16T23:01:38.286Z,13.14
2019-04-16T23:04:04.996Z,13.09
2019-04-16T23:06:32.470Z,13.05
2019-04-16T23:08:59.492Z,12.96
2019-04-16T23:11:26.392Z,13.00
2019-04-16T23:13:53.101Z,13.00
2019-04-16T23:16:20.054Z,13.04
2019-04-16T23:18:49.338Z,12.98
2019-04-16T23:21:15.391Z,12.88
2019-04-16T23:23:42.117Z,12.92
2019-04-16T23:26:09.139Z,12.84
2019-04-16T23:28:35.963Z,12.59
2019-04-16T23:31:04.583Z,12.53
2019-04-16T23:33:32.803Z,12.63
2019-04-16T23:36:00.333Z,12.71
2019-04-16T23:38:31.256Z,12.78
2019-04-16T23:40:55.745Z,12.95
2019-04-16T23:43:53.580Z,12.95
2019-04-16T23:46:41.478Z,12.94
2019-04-16T23:49:27.836Z,12.95
2019-04-16T23:52:03.572Z,12.98
2019-04-16T23:54:35.188Z,12.97
2019-04-16T23:57:15.635Z,12.87
